WetterOnline ( http://www.wetteronline.de )

Wetter aktuell Gelsenkirchen

Aktuelles Wetter: Essen (161m)

6-stündlich | Neueste Meldungen
Ortszeit Temperatur Wetter
Sa, 21.04. 20:00 20.7° C leicht bewölkt
Sa, 21.04. 14:00 21.4° C wolkenlos
Sa, 21.04. 8:00 12.9° C wolkig
Sa, 21.04. 2:00 18.5° C bewölkt
Fr, 20.04. 20:00 24.7° C leicht bewölkt
Fr, 20.04. 14:00 25.8° C wolkenlos
Fr, 20.04. 8:00 18.5° C bedeckt
Fr, 20.04. 2:00 20.2° C wolkenlos
Ortszeit Temperatur Wetter
Sa, 21.04. 21:00 19.4° C wolkenlos
Sa, 21.04. 20:50 19.4° C wolkenlos
Sa, 21.04. 20:40 19.6° C wolkenlos
Sa, 21.04. 20:30 20.2° C fast wolkenlos
Sa, 21.04. 20:20 20.2° C fast wolkenlos
Sa, 21.04. 20:10 20.1° C leicht bewölkt
Sa, 21.04. 20:00 20.7° C leicht bewölkt
Sa, 21.04. 19:30 21.5° C leicht bewölkt
Sa, 21.04. 19:00 21.9° C wolkenlos
Sa, 21.04. 18:30 22.3° C wolkenlos
Sa, 21.04. 18:00 22.3° C leicht bewölkt
Ortszeit Relative Feuchte Sichtweite
Sa, 21.04. 20:00 47% 23 km
Sa, 21.04. 14:00 53% 8 km
Sa, 21.04. 8:00 83% 3.4 km
Sa, 21.04. 2:00 64% 10 km
Fr, 20.04. 20:00 41% 35 km
Fr, 20.04. 14:00 37% 35 km
Fr, 20.04. 8:00 40% 45 km
Fr, 20.04. 2:00 35% 55 km
Ortszeit Relative Feuchte Sichtweite
Sa, 21.04. 21:00 49% 23 km
Sa, 21.04. 20:50 49% -
Sa, 21.04. 20:40 49% -
Sa, 21.04. 20:30 48% 28 km
Sa, 21.04. 20:20 48% -
Sa, 21.04. 20:10 49% -
Sa, 21.04. 20:00 47% 23 km
Sa, 21.04. 19:30 45% 18 km
Sa, 21.04. 19:00 45% 17 km
Sa, 21.04. 18:30 45% 18 km
Sa, 21.04. 18:00 44% 14 km
Ortszeit Niederschlagsmenge Niederschlagsart
Sa, 21.04. 20:00 0.0 l/m2 in 12 Std. -
Sa, 21.04. 14:00 0.0 l/m2 in 6 Std. -
Sa, 21.04. 8:00 0.0 l/m2 in 12 Std. -
Sa, 21.04. 2:00 0.0 l/m2 in 6 Std. -
Fr, 20.04. 20:00 0.0 l/m2 in 12 Std. -
Fr, 20.04. 14:00 0.0 l/m2 in 6 Std. -
Fr, 20.04. 8:00 0.0 l/m2 in 12 Std. -
Fr, 20.04. 2:00 0.0 l/m2 in 6 Std. -
Ortszeit Niederschlagsmenge Niederschlagsart
Sa, 21.04. 21:00 0.0 l/m2 in 1 Std. -
Sa, 21.04. 20:50 keine Meldung -
Sa, 21.04. 20:40 keine Meldung -
Sa, 21.04. 20:30 0.0 l/m2 in 1 Std. -
Sa, 21.04. 20:20 keine Meldung -
Sa, 21.04. 20:10 keine Meldung -
Sa, 21.04. 20:00 0.0 l/m2 in 1 Std. -
Sa, 21.04. 19:30 0.0 l/m2 in 1 Std. -
Sa, 21.04. 19:00 0.0 l/m2 in 1 Std. -
Sa, 21.04. 18:30 0.0 l/m2 in 1 Std. -
Sa, 21.04. 18:00 0.0 l/m2 in 1 Std. -
Ortszeit Stärke Spitze Richtung
km/h Bft. km/h Grad Sektor
Sa, 21.04. 20:00 11 2 25 40° NO
Sa, 21.04. 14:00 11 2 18 350° N
Sa, 21.04. 8:00 7 2 14 340° N
Sa, 21.04. 2:00 9 2 20 10° N
Fr, 20.04. 20:00 7 2 22 260° W
Fr, 20.04. 14:00 9 2 22 250° W
Fr, 20.04. 8:00 7 2 22 200° S
Fr, 20.04. 2:00 11 2 22 160° S
Ortszeit Stärke Spitze Richtung
km/h Bft. km/h Grad Sektor
Sa, 21.04. 21:00 13 3 19 50° NO
Sa, 21.04. 20:50 13 3 - 50° NO
Sa, 21.04. 20:40 11 2 - 50° NO
Sa, 21.04. 20:30 11 2 18 50° NO
Sa, 21.04. 20:20 11 2 - 50° NO
Sa, 21.04. 20:10 11 2 - 50° NO
Sa, 21.04. 20:00 11 2 18 40° NO
Sa, 21.04. 19:30 11 2 18 40° NO
Sa, 21.04. 19:00 9 2 19 50° NO
Sa, 21.04. 18:30 11 2 18 50° NO
Sa, 21.04. 18:00 13 3 24 30° NO
Ortszeit Untergrenze Bedeckung Gattung
total tief tief mittel hoch
Sa, 21.04. 20:00 10500 m 6/8 0/8 - - -
Sa, 21.04. 14:00 - 0/8 0/8 - - -
Sa, 21.04. 8:00 10500 m 8/8 0/8 - - -
Sa, 21.04. 2:00 2100 m 7/8 7/8 - - -
Fr, 20.04. 20:00 2100 m 4/8 2/8 - - -
Fr, 20.04. 14:00 - 0/8 0/8 - - -
Fr, 20.04. 8:00 - 8/8 - - - -
Fr, 20.04. 2:00 - 0/8 0/8 - - -
Ortszeit Bedeckungsgrad in Achtel und Wolkenuntergrenze
Sa, 21.04. 21:00 keine Wolken
Sa, 21.04. 20:50 keine Wolken
Sa, 21.04. 20:40 keine Wolken
Sa, 21.04. 20:30 2(10500m)
Sa, 21.04. 20:20 2(10500m)
Sa, 21.04. 20:10 5(10500m)
Sa, 21.04. 20:00 6(10500m)
Sa, 21.04. 19:30 5(10500m)
Sa, 21.04. 19:00 1(10500m)
Sa, 21.04. 18:30 keine Wolken
Sa, 21.04. 18:00 4(10500m)
Ortszeit Luftdruck NN (hPa) Tendenz (hPa in 3 Std.)
Sa, 21.04. 20:00 1019 - 1,2
Sa, 21.04. 14:00 1021 - 1,0
Sa, 21.04. 8:00 1022 + 0,8
Sa, 21.04. 2:00 1021 - 0,2
Fr, 20.04. 20:00 1020 - 1,1
Fr, 20.04. 14:00 1023 - 0,6
Fr, 20.04. 8:00 1024 - 0,1
Fr, 20.04. 2:00 1024 - 0,4
Ortszeit Luftdruck NN (hPa) Tendenz (hPa in 3 Std.)
Sa, 21.04. 21:00 1019 - 0,7
Sa, 21.04. 20:50 1019 keine Meldung
Sa, 21.04. 20:40 1019 keine Meldung
Sa, 21.04. 20:30 1019 - 0,9
Sa, 21.04. 20:20 1019 keine Meldung
Sa, 21.04. 20:10 1019 keine Meldung
Sa, 21.04. 20:00 1019 - 1,2
Sa, 21.04. 19:30 1019 - 1,3
Sa, 21.04. 19:00 1019 - 1,4
Sa, 21.04. 18:30 1019 - 1,5
Sa, 21.04. 18:00 1019 - 1,5
Ortszeit Schneehöhe (cm)
Sa, 21.04. 20:00 -
Sa, 21.04. 14:00 0
Sa, 21.04. 8:00 0
Sa, 21.04. 2:00 0
Fr, 20.04. 20:00 0
Fr, 20.04. 14:00 0
Fr, 20.04. 8:00 0
Fr, 20.04. 2:00 0
Ortszeit Schneehöhe (cm)
Sa, 21.04. 21:00 -
Sa, 21.04. 20:50 -
Sa, 21.04. 20:40 -
Sa, 21.04. 20:30 -
Sa, 21.04. 20:20 -
Sa, 21.04. 20:10 -
Sa, 21.04. 20:00 -
Sa, 21.04. 19:30 -
Sa, 21.04. 19:00 -
Sa, 21.04. 18:30 -
Sa, 21.04. 18:00 -
Link zu dieser Seite / Seite empfehlen

Das Wetter in ...